Time;durP1;ratioP1;P1;durP2;ratioP2;P2;SDS_P1;SDS_P2;PMS_P1;PMS_P2;Temp;Humidity;BMP_temperature;BMP_pressure;BME280_temperature;BME280_humidity;BME280_pressure;Samples;Min_cycle;Max_cycle;Signal;HPM_P1;HPM_P2
2021/12/14 00:17:07;;;;;;;;;;;;;;;;;;;;;
2021/12/14 00:46:41;;;;;;;6.90;5.50;;;;;;;2.03;77.19;94741.14;829169;71;32289;-79
2021/12/14 01:17:05;;;;;;;5.70;5.20;;;;;;;2.07;77.18;94749.53;816122;70;31764;-79
2021/12/14 02:46:53;;;;;;;6.78;5.42;;;;;;;1.91;78.44;94731.61;802638;72;32454;-79
2021/12/14 03:17:04;;;;;;;;;;;;;;;;;;;;;
2021/12/14 03:31:50;;;;;;;;;;;;;;;;;;;;;
2021/12/14 04:16:21;;;;;;;7.35;5.90;;;;;;;1.78;80.48;94749.94;827376;71;32704;-80
2021/12/14 06:16:24;;;;;;;10.30;8.20;;;;;;;1.91;81.10;94848.03;852213;68;32612;-80
2021/12/14 06:31:08;;;;;;;10.58;8.15;;;;;;;2.24;80.07;94843.31;825766;68;29744;-79
2021/12/14 06:46:29;;;;;;;11.90;9.13;;;;;;;2.38;79.61;94858.88;835461;71;32769;-80
2021/12/14 07:01:20;;;;;;;9.85;7.65;;;;;;;2.50;79.36;94881.67;828642;71;32682;-83
2021/12/14 07:16:20;;;;;;;10.10;7.35;;;;;;;2.40;79.15;94848.58;829472;71;29729;-83
2021/12/14 07:31:18;;;;;;;12.23;8.85;;;;;;;2.70;79.65;94889.08;828751;71;32025;-84
2021/12/14 07:46:43;;;;;;;14.58;11.18;;;;;;;2.85;79.90;94903.36;829970;71;32768;-81
2021/12/14 08:01:20;;;;;;;15.65;10.90;;;;;;;3.03;79.69;94908.38;827562;71;32849;-81
2021/12/14 08:16:12;;;;;;;13.55;10.30;;;;;;;3.28;79.21;94922.33;828285;71;31550;-77
2021/12/14 08:31:10;;;;;;;15.35;10.50;;;;;;;3.42;78.51;94929.33;827976;71;30394;-80
2021/12/14 08:46:13;;;;;;;13.22;10.18;;;;;;;3.48;78.05;94920.62;834042;71;29764;-82
2021/12/14 09:01:23;;;;;;;14.00;10.90;;;;;;;3.64;77.56;94917.02;828002;71;32753;-82
2021/12/14 09:16:20;;;;;;;15.28;10.80;;;;;;;3.85;76.85;94908.53;828234;71;30987;-82
2021/12/14 09:31:15;;;;;;;14.63;10.45;;;;;;;4.07;76.91;94896.17;834301;71;32029;-80
2021/12/14 09:46:15;;;;;;;18.07;13.15;;;;;;;4.33;76.21;94879.16;834217;71;32607;-81
2021/12/14 10:01:18;;;;;;;16.48;12.50;;;;;;;4.46;75.69;94870.23;819423;71;30435;-81
2021/12/14 10:16:14;;;;;;;20.35;12.80;;;;;;;4.59;75.28;94868.59;826579;71;32800;-80
2021/12/14 10:31:15;;;;;;;15.70;12.07;;;;;;;4.61;74.90;94856.93;828587;71;32006;-78
2021/12/14 10:46:31;;;;;;;18.95;13.75;;;;;;;4.55;75.10;94855.81;821277;71;32620;-83
2021/12/14 11:01:15;;;;;;;16.90;11.40;;;;;;;4.53;75.08;94837.08;828799;71;32596;-80
2021/12/14 11:16:17;;;;;;;18.05;13.25;;;;;;;4.47;75.62;94838.05;827915;71;30258;-80
2021/12/14 11:31:15;;;;;;;20.12;12.90;;;;;;;4.31;75.77;94831.33;833878;71;30245;-77
2021/12/14 11:46:08;;;;;;;23.42;15.20;;;;;;;4.23;76.46;94825.77;827966;71;29717;-77
2021/12/14 12:01:33;;;;;;;20.52;15.05;;;;;;;4.16;76.54;94816.86;827136;71;32722;-77
2021/12/14 12:16:23;;;;;;;19.27;13.03;;;;;;;4.16;76.76;94818.16;828026;70;29721;-77
2021/12/14 12:31:20;;;;;;;22.70;15.38;;;;;;;4.13;76.60;94816.02;823501;71;32710;-77
2021/12/14 12:46:21;;;;;;;22.52;14.33;;;;;;;4.04;76.96;94809.69;832048;71;32723;-77
2021/12/14 13:01:17;;;;;;;19.07;14.50;;;;;;;3.98;77.14;94817.91;833770;71;32698;-77
2021/12/14 13:16:20;;;;;;;19.35;13.65;;;;;;;4.00;77.07;94815.86;828337;71;30369;-77
2021/12/14 13:31:09;;;;;;;21.73;15.53;;;;;;;4.00;76.90;94815.86;833967;71;29741;-78
2021/12/14 13:46:15;;;;;;;19.55;13.40;;;;;;;4.01;77.01;94825.20;827139;71;32785;-76
2021/12/14 14:01:17;;;;;;;19.85;14.18;;;;;;;3.99;76.93;94834.55;827332;71;32848;-77
2021/12/14 14:16:16;;;;;;;22.65;14.93;;;;;;;3.93;76.98;94843.77;833960;71;32829;-79
2021/12/14 14:31:14;;;;;;;24.43;15.88;;;;;;;3.86;77.46;94849.65;828224;71;30321;-78
2021/12/14 14:46:10;;;;;;;22.65;16.15;;;;;;;3.73;77.67;94850.73;833714;71;30998;-80
2021/12/14 15:01:18;;;;;;;22.30;15.48;;;;;;;3.66;78.00;94857.89;830235;70;29715;-78
2021/12/14 15:16:56;;;;;;;31.80;21.25;;;;;;;3.44;78.65;94859.08;826663;70;32979;-80
2021/12/14 15:31:26;;;;;;;30.23;17.15;;;;;;;3.29;78.77;94871.28;833705;71;32762;-80
2021/12/14 15:46:57;;;;;;;24.72;16.90;;;;;;;3.19;79.15;94884.84;833710;71;33740;-80
2021/12/14 16:01:14;;;;;;;22.40;15.75;;;;;;;3.15;79.33;94897.98;828103;71;30322;-79
2021/12/14 16:16:15;;;;;;;24.63;16.85;;;;;;;3.12;79.62;94904.91;828025;71;32028;-80
2021/12/14 16:31:49;;;;;;;26.97;19.00;;;;;;;3.09;80.20;94902.28;819322;71;32674;-79
2021/12/14 16:46:27;;;;;;;24.40;16.95;;;;;;;3.09;80.05;94906.69;827437;71;31752;-78
2021/12/14 17:01:18;;;;;;;23.45;15.75;;;;;;;3.00;79.99;94901.86;827089;71;31898;-77
2021/12/14 17:31:12;;;;;;;28.95;19.00;;;;;;;3.06;80.22;94916.98;826951;71;29314;-80
2021/12/14 17:46:08;;;;;;;32.85;20.62;;;;;;;3.03;80.54;94929.12;828404;71;28623;-81
2021/12/14 18:01:19;;;;;;;24.45;17.00;;;;;;;2.73;80.34;94899.48;820858;71;31113;-80
2021/12/14 18:16:17;;;;;;;28.50;17.90;;;;;;;2.93;80.58;94951.72;820726;71;29307;-78
2021/12/14 18:31:15;;;;;;;24.55;15.75;;;;;;;2.91;80.47;94962.83;819176;71;31961;-79
2021/12/14 18:46:32;;;;;;;24.20;15.13;;;;;;;2.90;80.77;94971.63;827875;71;29786;-81
2021/12/14 19:01:27;;;;;;;27.17;16.35;;;;;;;2.90;80.83;94985.08;825768;71;31875;-81
2021/12/14 19:16:49;;;;;;;24.18;15.65;;;;;;;2.87;81.10;94994.61;807193;72;31796;-80
2021/12/14 19:31:17;;;;;;;23.18;15.60;;;;;;;2.86;80.69;94994.31;827769;71;29336;-80
2021/12/14 19:46:12;;;;;;;23.77;15.05;;;;;;;2.76;80.82;94989.72;821601;71;29536;-80
2021/12/14 20:16:16;;;;;;;24.55;14.18;;;;;;;2.82;80.47;94982.34;833626;71;28694;-78
2021/12/14 20:31:34;;;;;;;26.73;15.55;;;;;;;2.86;80.71;94978.77;833579;71;30400;-80
2021/12/14 20:46:36;;;;;;;;;;;;;;;;;;;;;
2021/12/14 21:01:36;;;;;;;23.87;14.90;;;;;;;2.74;80.47;94993.05;833772;71;30238;-80
2021/12/14 21:16:29;;;;;;;26.07;15.10;;;;;;;2.73;80.34;95022.55;833605;71;32351;-78
2021/12/14 22:01:59;;;;;;;25.48;15.93;;;;;;;2.77;80.60;95003.73;807322;72;32361;-80
2021/12/14 22:17:06;;;;;;;21.40;14.87;;;;;;;2.73;80.32;94976.69;833517;71;32788;-78
2021/12/14 22:31:17;;;;;;;26.02;15.20;;;;;;;2.78;80.23;94996.25;818596;71;32328;-79
2021/12/14 22:46:56;;;;;;;27.00;16.85;;;;;;;2.80;80.48;94983.86;815222;72;32945;-78
2021/12/14 23:16:56;;;;;;;20.48;13.40;;;;;;;2.84;79.34;94995.86;815083;72;32816;-79
2021/12/14 23:31:13;;;;;;;27.70;14.38;;;;;;;2.77;79.09;94986.11;829968;71;29823;-79
